リール の空港の天気 - METARとTAF

リール空港 ( LFQQ / LIL ) - フランス リール
飛行場実況気象(Metar)
観測時間02/05 22:30 CET (02/05 21:30 UTC)
風向・風速北 6m/s
視程10km以上
天気現象
なし
気温5℃
湿度87%
気圧1043hPa
METARLFQQ 052130Z AUTO 01011KT CAVOK 05/03 Q1043 NOSIG
過去の天気等 Google飛行場航空写真 Wunderground天気予報

過去48時間のMETAR

飛行場予報(TAF)
発表時間: 2/05 18:00 CET (2/05 17:00 UTC)
予報対象時間: 5日19時 CET ~ 7日1時 CET
風向・風速北 8m/s
視程10km以上
全天の4割程度の雲 雲底高度 610m
5日21時 CET ~ 5日24時 CET に徐々に
風向・風速北北東 3m/s
6日7時 CET から 確率 30% で
視程3000m
天気現象もや
全天を覆う雲 雲底高度 90m
TAF LFQQ 051700Z 0518/0624 36015KT 9999 SCT020
BECMG 0520/0523 02005KT
PROB30 0606/0611 3000 BR OVC003